sensor_id;sensor_type;location;lat;lon;timestamp;P1;durP1;ratioP1;P2;durP2;ratioP2
64907;SDS011;69061;52.236;5.188;2023-04-07T00:02:17;23.27;;;10.93;;
64907;SDS011;69061;52.236;5.188;2023-04-07T00:04:44;20.30;;;9.57;;
64907;SDS011;69061;52.236;5.188;2023-04-07T00:07:10;20.83;;;10.55;;
64907;SDS011;69061;52.236;5.188;2023-04-07T00:09:38;23.33;;;10.85;;
64907;SDS011;69061;52.236;5.188;2023-04-07T00:12:05;26.15;;;10.73;;
64907;SDS011;69061;52.236;5.188;2023-04-07T00:14:31;26.45;;;10.68;;
64907;SDS011;69061;52.236;5.188;2023-04-07T00:16:58;18.48;;;10.10;;
64907;SDS011;69061;52.236;5.188;2023-04-07T00:19:25;19.15;;;10.13;;
64907;SDS011;69061;52.236;5.188;2023-04-07T00:21:51;21.85;;;9.65;;
64907;SDS011;69061;52.236;5.188;2023-04-07T00:24:18;19.45;;;9.45;;
64907;SDS011;69061;52.236;5.188;2023-04-07T00:26:46;18.17;;;9.65;;
64907;SDS011;69061;52.236;5.188;2023-04-07T00:29:12;19.83;;;10.63;;
64907;SDS011;69061;52.236;5.188;2023-04-07T00:31:39;20.10;;;8.95;;
64907;SDS011;69061;52.236;5.188;2023-04-07T00:34:05;18.98;;;9.65;;
64907;SDS011;69061;52.236;5.188;2023-04-07T00:36:32;21.25;;;10.48;;
64907;SDS011;69061;52.236;5.188;2023-04-07T00:38:58;21.25;;;10.52;;
64907;SDS011;69061;52.236;5.188;2023-04-07T00:41:25;19.85;;;11.73;;
64907;SDS011;69061;52.236;5.188;2023-04-07T00:43:53;17.60;;;10.80;;
64907;SDS011;69061;52.236;5.188;2023-04-07T00:46:20;20.48;;;10.07;;
64907;SDS011;69061;52.236;5.188;2023-04-07T00:48:48;22.38;;;9.00;;
64907;SDS011;69061;52.236;5.188;2023-04-07T00:51:14;20.23;;;9.73;;
64907;SDS011;69061;52.236;5.188;2023-04-07T00:53:41;19.42;;;10.18;;
64907;SDS011;69061;52.236;5.188;2023-04-07T00:56:08;22.95;;;12.27;;
64907;SDS011;69061;52.236;5.188;2023-04-07T00:58:34;19.27;;;9.80;;
64907;SDS011;69061;52.236;5.188;2023-04-07T01:01:03;22.45;;;10.85;;
64907;SDS011;69061;52.236;5.188;2023-04-07T01:03:34;24.25;;;12.20;;
64907;SDS011;69061;52.236;5.188;2023-04-07T01:08:37;26.92;;;12.52;;
64907;SDS011;69061;52.236;5.188;2023-04-07T01:11:15;27.02;;;12.52;;
64907;SDS011;69061;52.236;5.188;2023-04-07T01:13:47;25.63;;;12.88;;
64907;SDS011;69061;52.236;5.188;2023-04-07T01:16:18;28.10;;;13.23;;
64907;SDS011;69061;52.236;5.188;2023-04-07T01:18:50;25.67;;;13.70;;
64907;SDS011;69061;52.236;5.188;2023-04-07T01:21:19;28.80;;;14.68;;
64907;SDS011;69061;52.236;5.188;2023-04-07T01:24:04;22.88;;;12.15;;
64907;SDS011;69061;52.236;5.188;2023-04-07T01:26:49;22.75;;;12.27;;
64907;SDS011;69061;52.236;5.188;2023-04-07T01:29:34;25.80;;;13.30;;
64907;SDS011;69061;52.236;5.188;2023-04-07T01:32:04;20.77;;;11.77;;
64907;SDS011;69061;52.236;5.188;2023-04-07T01:34:34;19.90;;;10.13;;
64907;SDS011;69061;52.236;5.188;2023-04-07T01:37:03;24.55;;;11.32;;
64907;SDS011;69061;52.236;5.188;2023-04-07T01:39:31;24.45;;;12.50;;
64907;SDS011;69061;52.236;5.188;2023-04-07T01:41:59;23.52;;;12.52;;
64907;SDS011;69061;52.236;5.188;2023-04-07T01:44:26;21.92;;;11.30;;
64907;SDS011;69061;52.236;5.188;2023-04-07T01:46:56;18.58;;;10.43;;
64907;SDS011;69061;52.236;5.188;2023-04-07T01:49:23;23.20;;;11.50;;
64907;SDS011;69061;52.236;5.188;2023-04-07T01:51:51;23.58;;;12.23;;
64907;SDS011;69061;52.236;5.188;2023-04-07T01:54:18;24.92;;;11.98;;
64907;SDS011;69061;52.236;5.188;2023-04-07T01:56:45;21.45;;;11.23;;
64907;SDS011;69061;52.236;5.188;2023-04-07T01:59:12;23.10;;;10.77;;
64907;SDS011;69061;52.236;5.188;2023-04-07T02:01:38;24.67;;;11.45;;
64907;SDS011;69061;52.236;5.188;2023-04-07T02:04:08;19.90;;;10.40;;
64907;SDS011;69061;52.236;5.188;2023-04-07T02:06:40;18.50;;;9.60;;
64907;SDS011;69061;52.236;5.188;2023-04-07T02:09:09;30.83;;;11.85;;
64907;SDS011;69061;52.236;5.188;2023-04-07T02:11:38;21.20;;;10.23;;
64907;SDS011;69061;52.236;5.188;2023-04-07T02:14:07;23.75;;;10.75;;
64907;SDS011;69061;52.236;5.188;2023-04-07T02:16:35;20.45;;;9.77;;
64907;SDS011;69061;52.236;5.188;2023-04-07T02:19:02;21.92;;;11.15;;
64907;SDS011;69061;52.236;5.188;2023-04-07T02:21:31;25.85;;;11.48;;
64907;SDS011;69061;52.236;5.188;2023-04-07T02:23:59;19.50;;;10.23;;
64907;SDS011;69061;52.236;5.188;2023-04-07T02:26:26;18.52;;;9.25;;
64907;SDS011;69061;52.236;5.188;2023-04-07T02:28:53;21.42;;;10.02;;
64907;SDS011;69061;52.236;5.188;2023-04-07T02:31:19;16.38;;;8.63;;
64907;SDS011;69061;52.236;5.188;2023-04-07T02:33:46;17.95;;;8.95;;
64907;SDS011;69061;52.236;5.188;2023-04-07T02:36:12;20.75;;;8.30;;
64907;SDS011;69061;52.236;5.188;2023-04-07T02:38:40;16.95;;;9.25;;
64907;SDS011;69061;52.236;5.188;2023-04-07T02:41:06;19.52;;;9.07;;
64907;SDS011;69061;52.236;5.188;2023-04-07T02:43:33;21.67;;;8.30;;
64907;SDS011;69061;52.236;5.188;2023-04-07T02:45:59;19.80;;;8.35;;
64907;SDS011;69061;52.236;5.188;2023-04-07T02:48:26;23.92;;;8.15;;
64907;SDS011;69061;52.236;5.188;2023-04-07T02:50:52;20.90;;;8.30;;
64907;SDS011;69061;52.236;5.188;2023-04-07T02:53:19;19.30;;;8.32;;
64907;SDS011;69061;52.236;5.188;2023-04-07T02:55:47;21.45;;;7.93;;
64907;SDS011;69061;52.236;5.188;2023-04-07T02:58:14;26.48;;;8.63;;
64907;SDS011;69061;52.236;5.188;2023-04-07T03:00:40;24.67;;;8.38;;
64907;SDS011;69061;52.236;5.188;2023-04-07T03:03:07;31.02;;;8.52;;
64907;SDS011;69061;52.236;5.188;2023-04-07T03:05:33;15.38;;;7.47;;
64907;SDS011;69061;52.236;5.188;2023-04-07T03:08:00;19.65;;;8.13;;
64907;SDS011;69061;52.236;5.188;2023-04-07T03:10:26;18.83;;;8.70;;
64907;SDS011;69061;52.236;5.188;2023-04-07T03:12:54;18.90;;;8.63;;
64907;SDS011;69061;52.236;5.188;2023-04-07T03:15:21;14.02;;;8.07;;
64907;SDS011;69061;52.236;5.188;2023-04-07T03:17:48;21.00;;;8.77;;
64907;SDS011;69061;52.236;5.188;2023-04-07T03:20:14;23.50;;;9.18;;
64907;SDS011;69061;52.236;5.188;2023-04-07T03:22:41;39.70;;;10.65;;
64907;SDS011;69061;52.236;5.188;2023-04-07T03:25:09;20.30;;;8.35;;
64907;SDS011;69061;52.236;5.188;2023-04-07T03:27:37;23.00;;;9.25;;
64907;SDS011;69061;52.236;5.188;2023-04-07T03:30:05;20.63;;;8.98;;
64907;SDS011;69061;52.236;5.188;2023-04-07T03:32:33;25.60;;;9.38;;
64907;SDS011;69061;52.236;5.188;2023-04-07T03:34:59;19.27;;;9.07;;
64907;SDS011;69061;52.236;5.188;2023-04-07T03:37:26;20.20;;;8.77;;
64907;SDS011;69061;52.236;5.188;2023-04-07T03:39:52;22.98;;;10.02;;
64907;SDS011;69061;52.236;5.188;2023-04-07T03:42:19;16.63;;;7.88;;
64907;SDS011;69061;52.236;5.188;2023-04-07T03:44:46;20.63;;;9.57;;
64907;SDS011;69061;52.236;5.188;2023-04-07T03:47:14;19.35;;;8.30;;
64907;SDS011;69061;52.236;5.188;2023-04-07T03:49:40;20.75;;;8.18;;
64907;SDS011;69061;52.236;5.188;2023-04-07T03:52:07;14.90;;;8.35;;
64907;SDS011;69061;52.236;5.188;2023-04-07T03:54:33;19.92;;;7.93;;
64907;SDS011;69061;52.236;5.188;2023-04-07T03:57:00;14.77;;;7.90;;
64907;SDS011;69061;52.236;5.188;2023-04-07T03:59:27;19.50;;;9.07;;
64907;SDS011;69061;52.236;5.188;2023-04-07T04:01:53;14.88;;;8.32;;
64907;SDS011;69061;52.236;5.188;2023-04-07T04:04:21;20.15;;;8.23;;
64907;SDS011;69061;52.236;5.188;2023-04-07T04:06:49;14.65;;;7.57;;
64907;SDS011;69061;52.236;5.188;2023-04-07T04:09:16;15.02;;;7.97;;
64907;SDS011;69061;52.236;5.188;2023-04-07T04:11:42;17.50;;;7.10;;
64907;SDS011;69061;52.236;5.188;2023-04-07T04:14:09;16.38;;;8.00;;
64907;SDS011;69061;52.236;5.188;2023-04-07T04:16:36;15.07;;;6.85;;
64907;SDS011;69061;52.236;5.188;2023-04-07T04:19:02;16.67;;;7.50;;
64907;SDS011;69061;52.236;5.188;2023-04-07T04:21:30;14.60;;;6.63;;
64907;SDS011;69061;52.236;5.188;2023-04-07T04:23:57;12.05;;;5.63;;
64907;SDS011;69061;52.236;5.188;2023-04-07T04:26:23;15.88;;;6.75;;
64907;SDS011;69061;52.236;5.188;2023-04-07T04:28:50;15.40;;;6.60;;
64907;SDS011;69061;52.236;5.188;2023-04-07T04:31:17;16.35;;;5.97;;
64907;SDS011;69061;52.236;5.188;2023-04-07T04:33:43;15.88;;;5.88;;
64907;SDS011;69061;52.236;5.188;2023-04-07T04:36:10;13.18;;;5.90;;
64907;SDS011;69061;52.236;5.188;2023-04-07T04:38:38;12.02;;;6.28;;
64907;SDS011;69061;52.236;5.188;2023-04-07T04:41:05;14.55;;;6.80;;
64907;SDS011;69061;52.236;5.188;2023-04-07T04:43:31;13.23;;;6.18;;
64907;SDS011;69061;52.236;5.188;2023-04-07T04:45:58;16.65;;;6.30;;
64907;SDS011;69061;52.236;5.188;2023-04-07T04:48:24;12.55;;;6.28;;
64907;SDS011;69061;52.236;5.188;2023-04-07T04:50:51;17.58;;;7.85;;
64907;SDS011;69061;52.236;5.188;2023-04-07T04:53:17;13.75;;;6.22;;
64907;SDS011;69061;52.236;5.188;2023-04-07T04:55:45;15.35;;;6.25;;
64907;SDS011;69061;52.236;5.188;2023-04-07T04:58:16;16.35;;;6.80;;
64907;SDS011;69061;52.236;5.188;2023-04-07T05:00:43;12.85;;;6.60;;
64907;SDS011;69061;52.236;5.188;2023-04-07T05:03:09;11.82;;;5.20;;
64907;SDS011;69061;52.236;5.188;2023-04-07T05:05:36;10.85;;;5.22;;
64907;SDS011;69061;52.236;5.188;2023-04-07T05:08:03;10.75;;;5.40;;
64907;SDS011;69061;52.236;5.188;2023-04-07T05:10:29;11.65;;;5.95;;
64907;SDS011;69061;52.236;5.188;2023-04-07T05:12:57;14.90;;;6.10;;
64907;SDS011;69061;52.236;5.188;2023-04-07T05:15:24;15.50;;;6.13;;
64907;SDS011;69061;52.236;5.188;2023-04-07T05:17:51;17.42;;;7.03;;
64907;SDS011;69061;52.236;5.188;2023-04-07T05:20:17;14.65;;;6.15;;
64907;SDS011;69061;52.236;5.188;2023-04-07T05:22:44;11.70;;;5.93;;
64907;SDS011;69061;52.236;5.188;2023-04-07T05:25:10;13.90;;;5.35;;
64907;SDS011;69061;52.236;5.188;2023-04-07T05:27:37;10.82;;;5.57;;
64907;SDS011;69061;52.236;5.188;2023-04-07T05:30:06;11.10;;;5.55;;
64907;SDS011;69061;52.236;5.188;2023-04-07T05:32:33;11.65;;;5.97;;
64907;SDS011;69061;52.236;5.188;2023-04-07T05:35:00;13.98;;;5.65;;
64907;SDS011;69061;52.236;5.188;2023-04-07T05:37:26;16.17;;;5.55;;
64907;SDS011;69061;52.236;5.188;2023-04-07T05:39:53;20.55;;;5.85;;
64907;SDS011;69061;52.236;5.188;2023-04-07T05:42:19;15.80;;;6.63;;
64907;SDS011;69061;52.236;5.188;2023-04-07T05:44:46;12.05;;;5.68;;
64907;SDS011;69061;52.236;5.188;2023-04-07T05:47:14;12.35;;;5.65;;
64907;SDS011;69061;52.236;5.188;2023-04-07T05:49:40;10.95;;;5.43;;
64907;SDS011;69061;52.236;5.188;2023-04-07T05:52:10;16.67;;;5.70;;
64907;SDS011;69061;52.236;5.188;2023-04-07T05:54:36;11.73;;;5.93;;
64907;SDS011;69061;52.236;5.188;2023-04-07T05:57:04;13.88;;;5.93;;
64907;SDS011;69061;52.236;5.188;2023-04-07T05:59:31;19.13;;;5.78;;
64907;SDS011;69061;52.236;5.188;2023-04-07T06:01:58;13.25;;;5.35;;
64907;SDS011;69061;52.236;5.188;2023-04-07T06:04:28;12.57;;;5.13;;
64907;SDS011;69061;52.236;5.188;2023-04-07T06:06:55;13.60;;;6.00;;
64907;SDS011;69061;52.236;5.188;2023-04-07T06:09:21;14.27;;;5.45;;
64907;SDS011;69061;52.236;5.188;2023-04-07T06:11:48;13.23;;;5.70;;
64907;SDS011;69061;52.236;5.188;2023-04-07T06:14:15;12.88;;;5.75;;
64907;SDS011;69061;52.236;5.188;2023-04-07T06:16:42;18.27;;;6.22;;
64907;SDS011;69061;52.236;5.188;2023-04-07T06:19:09;23.95;;;6.75;;
64907;SDS011;69061;52.236;5.188;2023-04-07T06:21:37;17.02;;;6.55;;
64907;SDS011;69061;52.236;5.188;2023-04-07T06:24:04;18.52;;;6.45;;
64907;SDS011;69061;52.236;5.188;2023-04-07T06:26:31;16.02;;;7.07;;
64907;SDS011;69061;52.236;5.188;2023-04-07T06:28:58;16.55;;;6.70;;
64907;SDS011;69061;52.236;5.188;2023-04-07T06:31:25;17.92;;;6.28;;
64907;SDS011;69061;52.236;5.188;2023-04-07T06:33:52;15.38;;;6.15;;
64907;SDS011;69061;52.236;5.188;2023-04-07T06:36:19;17.27;;;7.30;;
64907;SDS011;69061;52.236;5.188;2023-04-07T06:38:48;20.80;;;7.03;;
64907;SDS011;69061;52.236;5.188;2023-04-07T06:41:15;15.98;;;7.13;;
64907;SDS011;69061;52.236;5.188;2023-04-07T06:43:42;15.65;;;7.18;;
64907;SDS011;69061;52.236;5.188;2023-04-07T06:46:08;12.63;;;6.03;;
64907;SDS011;69061;52.236;5.188;2023-04-07T06:48:35;12.05;;;6.63;;
64907;SDS011;69061;52.236;5.188;2023-04-07T06:51:02;16.88;;;7.03;;
64907;SDS011;69061;52.236;5.188;2023-04-07T06:53:29;18.88;;;6.00;;
64907;SDS011;69061;52.236;5.188;2023-04-07T06:56:03;15.55;;;6.25;;
64907;SDS011;69061;52.236;5.188;2023-04-07T06:58:30;13.57;;;5.63;;
64907;SDS011;69061;52.236;5.188;2023-04-07T07:00:57;12.70;;;6.47;;
64907;SDS011;69061;52.236;5.188;2023-04-07T07:03:23;11.27;;;5.32;;
64907;SDS011;69061;52.236;5.188;2023-04-07T07:05:52;11.75;;;5.20;;
64907;SDS011;69061;52.236;5.188;2023-04-07T07:08:20;19.15;;;5.65;;
64907;SDS011;69061;52.236;5.188;2023-04-07T07:10:47;13.60;;;5.30;;
64907;SDS011;69061;52.236;5.188;2023-04-07T07:13:14;14.52;;;5.88;;
64907;SDS011;69061;52.236;5.188;2023-04-07T07:15:41;15.30;;;6.05;;
64907;SDS011;69061;52.236;5.188;2023-04-07T07:18:08;18.27;;;6.00;;
64907;SDS011;69061;52.236;5.188;2023-04-07T07:20:34;12.50;;;5.50;;
64907;SDS011;69061;52.236;5.188;2023-04-07T07:23:01;15.38;;;5.55;;
64907;SDS011;69061;52.236;5.188;2023-04-07T07:25:28;18.38;;;5.88;;
64907;SDS011;69061;52.236;5.188;2023-04-07T07:27:54;11.57;;;5.60;;
64907;SDS011;69061;52.236;5.188;2023-04-07T07:30:22;15.00;;;5.38;;
64907;SDS011;69061;52.236;5.188;2023-04-07T07:32:50;17.90;;;5.57;;
64907;SDS011;69061;52.236;5.188;2023-04-07T07:35:17;11.30;;;4.45;;
64907;SDS011;69061;52.236;5.188;2023-04-07T07:37:44;21.38;;;5.47;;
64907;SDS011;69061;52.236;5.188;2023-04-07T07:40:11;15.60;;;4.85;;
64907;SDS011;69061;52.236;5.188;2023-04-07T07:42:38;19.52;;;6.53;;
64907;SDS011;69061;52.236;5.188;2023-04-07T07:45:05;10.00;;;4.72;;
64907;SDS011;69061;52.236;5.188;2023-04-07T07:47:33;12.73;;;5.13;;
64907;SDS011;69061;52.236;5.188;2023-04-07T07:50:01;13.43;;;5.05;;
64907;SDS011;69061;52.236;5.188;2023-04-07T07:52:28;12.25;;;5.28;;
64907;SDS011;69061;52.236;5.188;2023-04-07T07:54:55;12.18;;;4.47;;
64907;SDS011;69061;52.236;5.188;2023-04-07T07:57:21;10.77;;;4.38;;
64907;SDS011;69061;52.236;5.188;2023-04-07T07:59:48;9.15;;;4.50;;
64907;SDS011;69061;52.236;5.188;2023-04-07T08:02:14;8.75;;;4.30;;
64907;SDS011;69061;52.236;5.188;2023-04-07T08:04:42;10.60;;;4.70;;
64907;SDS011;69061;52.236;5.188;2023-04-07T08:07:09;9.77;;;4.45;;
64907;SDS011;69061;52.236;5.188;2023-04-07T08:09:36;9.60;;;4.25;;
64907;SDS011;69061;52.236;5.188;2023-04-07T08:12:03;12.55;;;4.70;;
64907;SDS011;69061;52.236;5.188;2023-04-07T08:14:29;9.45;;;4.78;;
64907;SDS011;69061;52.236;5.188;2023-04-07T08:16:56;9.25;;;4.90;;
64907;SDS011;69061;52.236;5.188;2023-04-07T08:19:22;14.18;;;5.70;;
64907;SDS011;69061;52.236;5.188;2023-04-07T08:21:50;12.32;;;4.85;;
64907;SDS011;69061;52.236;5.188;2023-04-07T08:24:17;10.45;;;5.03;;
64907;SDS011;69061;52.236;5.188;2023-04-07T08:26:43;14.77;;;5.40;;
64907;SDS011;69061;52.236;5.188;2023-04-07T08:29:10;15.77;;;4.60;;
64907;SDS011;69061;52.236;5.188;2023-04-07T08:31:37;12.05;;;4.25;;
64907;SDS011;69061;52.236;5.188;2023-04-07T08:34:03;14.93;;;5.07;;
64907;SDS011;69061;52.236;5.188;2023-04-07T08:36:30;11.63;;;4.68;;
64907;SDS011;69061;52.236;5.188;2023-04-07T08:38:58;9.25;;;4.00;;
64907;SDS011;69061;52.236;5.188;2023-04-07T08:41:26;17.20;;;4.70;;
64907;SDS011;69061;52.236;5.188;2023-04-07T08:43:56;12.52;;;3.95;;
64907;SDS011;69061;52.236;5.188;2023-04-07T08:46:23;14.18;;;4.05;;
64907;SDS011;69061;52.236;5.188;2023-04-07T08:48:51;11.05;;;3.70;;
64907;SDS011;69061;52.236;5.188;2023-04-07T08:51:21;11.25;;;4.03;;
64907;SDS011;69061;52.236;5.188;2023-04-07T08:53:52;8.00;;;3.38;;
64907;SDS011;69061;52.236;5.188;2023-04-07T08:56:24;10.48;;;4.03;;
64907;SDS011;69061;52.236;5.188;2023-04-07T08:58:51;11.98;;;4.63;;
64907;SDS011;69061;52.236;5.188;2023-04-07T09:01:19;8.80;;;3.50;;
64907;SDS011;69061;52.236;5.188;2023-04-07T09:03:46;8.45;;;3.70;;
64907;SDS011;69061;52.236;5.188;2023-04-07T09:06:14;13.18;;;4.68;;
64907;SDS011;69061;52.236;5.188;2023-04-07T09:08:41;10.35;;;3.63;;
64907;SDS011;69061;52.236;5.188;2023-04-07T09:11:07;9.02;;;4.10;;
64907;SDS011;69061;52.236;5.188;2023-04-07T09:13:35;8.82;;;3.83;;
64907;SDS011;69061;52.236;5.188;2023-04-07T09:16:02;6.75;;;3.50;;
64907;SDS011;69061;52.236;5.188;2023-04-07T09:18:30;8.55;;;4.00;;
64907;SDS011;69061;52.236;5.188;2023-04-07T09:20:58;7.20;;;3.70;;
64907;SDS011;69061;52.236;5.188;2023-04-07T09:23:29;15.18;;;4.07;;
64907;SDS011;69061;52.236;5.188;2023-04-07T09:25:57;8.50;;;4.00;;
64907;SDS011;69061;52.236;5.188;2023-04-07T09:28:43;6.47;;;3.90;;
64907;SDS011;69061;52.236;5.188;2023-04-07T09:31:11;11.90;;;4.18;;
64907;SDS011;69061;52.236;5.188;2023-04-07T09:33:37;10.38;;;4.40;;
64907;SDS011;69061;52.236;5.188;2023-04-07T09:36:04;7.07;;;3.80;;
64907;SDS011;69061;52.236;5.188;2023-04-07T09:38:32;6.35;;;3.80;;
64907;SDS011;69061;52.236;5.188;2023-04-07T09:41:04;7.80;;;3.92;;
64907;SDS011;69061;52.236;5.188;2023-04-07T09:43:31;11.00;;;4.18;;
64907;SDS011;69061;52.236;5.188;2023-04-07T09:46:06;6.68;;;3.47;;
64907;SDS011;69061;52.236;5.188;2023-04-07T09:48:34;9.95;;;4.20;;
64907;SDS011;69061;52.236;5.188;2023-04-07T09:51:03;6.40;;;3.72;;
64907;SDS011;69061;52.236;5.188;2023-04-07T09:53:39;8.88;;;4.40;;
64907;SDS011;69061;52.236;5.188;2023-04-07T09:56:07;9.57;;;3.70;;
64907;SDS011;69061;52.236;5.188;2023-04-07T09:58:36;7.97;;;3.50;;
64907;SDS011;69061;52.236;5.188;2023-04-07T10:01:03;11.48;;;3.65;;
64907;SDS011;69061;52.236;5.188;2023-04-07T10:03:33;7.28;;;3.40;;
64907;SDS011;69061;52.236;5.188;2023-04-07T10:06:01;10.30;;;3.72;;
64907;SDS011;69061;52.236;5.188;2023-04-07T10:08:28;8.85;;;3.90;;
64907;SDS011;69061;52.236;5.188;2023-04-07T10:10:57;11.63;;;4.78;;
64907;SDS011;69061;52.236;5.188;2023-04-07T10:13:27;13.30;;;3.33;;
64907;SDS011;69061;52.236;5.188;2023-04-07T10:15:54;7.65;;;3.60;;
64907;SDS011;69061;52.236;5.188;2023-04-07T10:18:21;7.20;;;3.60;;
64907;SDS011;69061;52.236;5.188;2023-04-07T10:20:52;9.38;;;3.80;;
64907;SDS011;69061;52.236;5.188;2023-04-07T10:23:20;10.13;;;3.58;;
64907;SDS011;69061;52.236;5.188;2023-04-07T10:25:50;13.27;;;3.45;;
64907;SDS011;69061;52.236;5.188;2023-04-07T10:28:19;6.13;;;3.50;;
64907;SDS011;69061;52.236;5.188;2023-04-07T10:30:48;8.73;;;4.28;;
64907;SDS011;69061;52.236;5.188;2023-04-07T10:33:16;5.43;;;3.33;;
64907;SDS011;69061;52.236;5.188;2023-04-07T10:36:04;8.85;;;3.33;;
64907;SDS011;69061;52.236;5.188;2023-04-07T10:38:31;8.07;;;3.78;;
64907;SDS011;69061;52.236;5.188;2023-04-07T10:40:58;10.10;;;3.92;;
64907;SDS011;69061;52.236;5.188;2023-04-07T10:43:37;12.18;;;4.10;;
64907;SDS011;69061;52.236;5.188;2023-04-07T10:46:05;5.93;;;3.00;;
64907;SDS011;69061;52.236;5.188;2023-04-07T10:48:32;9.23;;;3.25;;
64907;SDS011;69061;52.236;5.188;2023-04-07T10:51:13;6.35;;;3.40;;
64907;SDS011;69061;52.236;5.188;2023-04-07T10:59:32;9.48;;;3.53;;
64907;SDS011;69061;52.236;5.188;2023-04-07T11:04:59;5.68;;;3.17;;
64907;SDS011;69061;52.236;5.188;2023-04-07T11:07:47;9.45;;;3.85;;
64907;SDS011;69061;52.236;5.188;2023-04-07T11:10:15;4.45;;;3.00;;
64907;SDS011;69061;52.236;5.188;2023-04-07T11:12:44;7.35;;;3.47;;
64907;SDS011;69061;52.236;5.188;2023-04-07T11:15:23;6.13;;;3.40;;
64907;SDS011;69061;52.236;5.188;2023-04-07T11:20:40;6.97;;;3.15;;
64907;SDS011;69061;52.236;5.188;2023-04-07T11:23:09;8.05;;;3.42;;
64907;SDS011;69061;52.236;5.188;2023-04-07T11:25:36;11.30;;;4.15;;
64907;SDS011;69061;52.236;5.188;2023-04-07T11:28:03;8.45;;;3.65;;
64907;SDS011;69061;52.236;5.188;2023-04-07T11:30:30;7.25;;;3.63;;
64907;SDS011;69061;52.236;5.188;2023-04-07T11:32:56;6.03;;;3.35;;
64907;SDS011;69061;52.236;5.188;2023-04-07T11:35:23;7.32;;;3.83;;
64907;SDS011;69061;52.236;5.188;2023-04-07T11:37:55;8.90;;;3.85;;
64907;SDS011;69061;52.236;5.188;2023-04-07T11:40:34;10.90;;;3.55;;
64907;SDS011;69061;52.236;5.188;2023-04-07T11:43:13;9.07;;;3.95;;
64907;SDS011;69061;52.236;5.188;2023-04-07T11:45:41;7.00;;;3.28;;
64907;SDS011;69061;52.236;5.188;2023-04-07T11:50:52;7.22;;;3.28;;
64907;SDS011;69061;52.236;5.188;2023-04-07T11:53:23;8.38;;;3.75;;
64907;SDS011;69061;52.236;5.188;2023-04-07T11:55:59;10.57;;;4.13;;
64907;SDS011;69061;52.236;5.188;2023-04-07T11:58:26;8.52;;;3.70;;
64907;SDS011;69061;52.236;5.188;2023-04-07T12:00:53;8.07;;;3.60;;
64907;SDS011;69061;52.236;5.188;2023-04-07T12:03:20;8.95;;;3.70;;
64907;SDS011;69061;52.236;5.188;2023-04-07T12:05:46;10.95;;;3.88;;
64907;SDS011;69061;52.236;5.188;2023-04-07T12:08:13;10.15;;;3.42;;
64907;SDS011;69061;52.236;5.188;2023-04-07T12:10:40;10.68;;;4.47;;
64907;SDS011;69061;52.236;5.188;2023-04-07T12:13:09;9.80;;;4.40;;
64907;SDS011;69061;52.236;5.188;2023-04-07T12:15:35;11.70;;;5.03;;
64907;SDS011;69061;52.236;5.188;2023-04-07T12:18:02;12.45;;;4.15;;
64907;SDS011;69061;52.236;5.188;2023-04-07T12:20:29;18.33;;;4.75;;
64907;SDS011;69061;52.236;5.188;2023-04-07T12:22:55;8.90;;;3.67;;
64907;SDS011;69061;52.236;5.188;2023-04-07T12:25:24;12.75;;;5.07;;
64907;SDS011;69061;52.236;5.188;2023-04-07T12:27:51;13.00;;;5.00;;
64907;SDS011;69061;52.236;5.188;2023-04-07T12:30:19;14.18;;;4.82;;
64907;SDS011;69061;52.236;5.188;2023-04-07T12:32:46;13.10;;;5.85;;
64907;SDS011;69061;52.236;5.188;2023-04-07T12:35:13;12.02;;;4.55;;
64907;SDS011;69061;52.236;5.188;2023-04-07T12:37:39;8.45;;;4.65;;
64907;SDS011;69061;52.236;5.188;2023-04-07T12:40:06;7.13;;;3.92;;
64907;SDS011;69061;52.236;5.188;2023-04-07T12:42:33;12.63;;;4.85;;
64907;SDS011;69061;52.236;5.188;2023-04-07T12:45:00;10.85;;;4.43;;
64907;SDS011;69061;52.236;5.188;2023-04-07T12:47:28;8.98;;;5.03;;
64907;SDS011;69061;52.236;5.188;2023-04-07T12:49:55;9.75;;;4.30;;
64907;SDS011;69061;52.236;5.188;2023-04-07T12:52:21;10.18;;;4.50;;
64907;SDS011;69061;52.236;5.188;2023-04-07T12:54:48;11.02;;;4.43;;
64907;SDS011;69061;52.236;5.188;2023-04-07T12:57:14;12.70;;;5.57;;
64907;SDS011;69061;52.236;5.188;2023-04-07T12:59:41;9.57;;;4.32;;
64907;SDS011;69061;52.236;5.188;2023-04-07T13:02:08;12.02;;;4.85;;
64907;SDS011;69061;52.236;5.188;2023-04-07T13:04:38;8.43;;;4.97;;
64907;SDS011;69061;52.236;5.188;2023-04-07T13:07:07;8.35;;;4.53;;
64907;SDS011;69061;52.236;5.188;2023-04-07T13:09:34;11.15;;;4.13;;
64907;SDS011;69061;52.236;5.188;2023-04-07T13:12:01;8.95;;;4.22;;
64907;SDS011;69061;52.236;5.188;2023-04-07T13:14:27;10.52;;;4.30;;
64907;SDS011;69061;52.236;5.188;2023-04-07T13:16:54;13.23;;;4.75;;
64907;SDS011;69061;52.236;5.188;2023-04-07T13:19:21;7.68;;;4.22;;
64907;SDS011;69061;52.236;5.188;2023-04-07T13:21:49;7.82;;;3.90;;
64907;SDS011;69061;52.236;5.188;2023-04-07T13:24:15;7.70;;;3.55;;
64907;SDS011;69061;52.236;5.188;2023-04-07T13:26:45;12.63;;;4.28;;
64907;SDS011;69061;52.236;5.188;2023-04-07T13:29:13;11.50;;;4.97;;
64907;SDS011;69061;52.236;5.188;2023-04-07T13:31:40;13.98;;;5.22;;
64907;SDS011;69061;52.236;5.188;2023-04-07T13:34:06;16.08;;;5.90;;
64907;SDS011;69061;52.236;5.188;2023-04-07T13:36:33;9.27;;;6.07;;
64907;SDS011;69061;52.236;5.188;2023-04-07T13:39:01;13.73;;;5.75;;
64907;SDS011;69061;52.236;5.188;2023-04-07T13:41:27;12.98;;;5.45;;
64907;SDS011;69061;52.236;5.188;2023-04-07T13:43:54;16.90;;;5.82;;
64907;SDS011;69061;52.236;5.188;2023-04-07T13:46:20;12.13;;;6.10;;
64907;SDS011;69061;52.236;5.188;2023-04-07T13:48:47;13.48;;;5.65;;
64907;SDS011;69061;52.236;5.188;2023-04-07T13:51:13;9.75;;;5.93;;
64907;SDS011;69061;52.236;5.188;2023-04-07T13:53:40;13.43;;;5.63;;
64907;SDS011;69061;52.236;5.188;2023-04-07T13:56:08;8.90;;;5.32;;
64907;SDS011;69061;52.236;5.188;2023-04-07T13:58:34;12.18;;;5.35;;
64907;SDS011;69061;52.236;5.188;2023-04-07T14:01:01;8.65;;;4.88;;
64907;SDS011;69061;52.236;5.188;2023-04-07T14:03:28;14.90;;;5.70;;
64907;SDS011;69061;52.236;5.188;2023-04-07T14:05:55;15.75;;;5.72;;
64907;SDS011;69061;52.236;5.188;2023-04-07T14:08:24;10.05;;;4.72;;
64907;SDS011;69061;52.236;5.188;2023-04-07T14:10:51;11.02;;;4.70;;
64907;SDS011;69061;52.236;5.188;2023-04-07T14:13:19;15.13;;;6.88;;
64907;SDS011;69061;52.236;5.188;2023-04-07T14:15:46;14.55;;;6.22;;
64907;SDS011;69061;52.236;5.188;2023-04-07T14:18:13;15.52;;;9.07;;
64907;SDS011;69061;52.236;5.188;2023-04-07T14:20:40;16.27;;;6.65;;
64907;SDS011;69061;52.236;5.188;2023-04-07T14:23:06;12.80;;;5.35;;
64907;SDS011;69061;52.236;5.188;2023-04-07T14:25:33;9.68;;;5.70;;
64907;SDS011;69061;52.236;5.188;2023-04-07T14:27:59;11.93;;;5.97;;
64907;SDS011;69061;52.236;5.188;2023-04-07T14:30:27;11.75;;;5.00;;
64907;SDS011;69061;52.236;5.188;2023-04-07T14:32:54;14.85;;;6.22;;
64907;SDS011;69061;52.236;5.188;2023-04-07T14:35:21;15.88;;;8.18;;
64907;SDS011;69061;52.236;5.188;2023-04-07T14:37:48;14.00;;;6.68;;
64907;SDS011;69061;52.236;5.188;2023-04-07T14:40:16;15.75;;;8.45;;
64907;SDS011;69061;52.236;5.188;2023-04-07T14:42:43;10.98;;;5.70;;
64907;SDS011;69061;52.236;5.188;2023-04-07T14:45:09;14.80;;;6.20;;
64907;SDS011;69061;52.236;5.188;2023-04-07T14:47:38;17.38;;;6.07;;
64907;SDS011;69061;52.236;5.188;2023-04-07T14:50:05;15.68;;;7.65;;
64907;SDS011;69061;52.236;5.188;2023-04-07T14:52:32;15.27;;;8.52;;
64907;SDS011;69061;52.236;5.188;2023-04-07T14:54:58;13.95;;;7.13;;
64907;SDS011;69061;52.236;5.188;2023-04-07T14:57:25;15.40;;;8.70;;